createdAt,value
2019-05-02T00:01:10.291Z,67.70
2019-05-02T00:03:42.902Z,68.60
2019-05-02T00:06:13.119Z,68.70
2019-05-02T00:08:43.346Z,69.20
2019-05-02T00:11:13.797Z,68.10
2019-05-02T00:13:44.495Z,67.70
2019-05-02T00:16:15.449Z,67.40
2019-05-02T00:18:45.770Z,68.00
2019-05-02T00:21:16.427Z,68.60
2019-05-02T00:23:46.875Z,68.60
2019-05-02T00:26:17.055Z,69.00
2019-05-02T00:28:49.741Z,68.60
2019-05-02T00:31:21.537Z,67.80
2019-05-02T00:33:51.882Z,67.60
2019-05-02T00:36:22.059Z,67.60
2019-05-02T00:38:52.286Z,67.60
2019-05-02T00:41:42.514Z,67.60
2019-05-02T00:44:13.046Z,67.90
2019-05-02T00:46:43.262Z,68.30
2019-05-02T00:49:13.470Z,68.40
2019-05-02T00:51:44.934Z,68.70
2019-05-02T00:54:19.265Z,68.70
2019-05-02T00:56:47.054Z,68.50
2019-05-02T00:59:17.259Z,68.80
2019-05-02T01:01:50.925Z,68.60
2019-05-02T01:04:23.261Z,68.70
2019-05-02T01:06:54.686Z,68.60
2019-05-02T01:09:25.265Z,68.40
2019-05-02T01:11:55.274Z,68.70
2019-05-02T01:14:27.032Z,68.60
2019-05-02T01:16:57.390Z,69.00
2019-05-02T01:19:27.671Z,69.20
2019-05-02T01:21:57.873Z,69.20
2019-05-02T01:24:29.377Z,69.80
2019-05-02T01:27:16.603Z,70.40
2019-05-02T01:29:49.819Z,70.60
2019-05-02T01:32:30.147Z,70.70
2019-05-02T01:34:59.063Z,70.40
2019-05-02T01:37:32.277Z,70.80
2019-05-02T01:40:02.617Z,70.60
2019-05-02T01:42:39.688Z,70.30
2019-05-02T01:45:06.739Z,70.30
2019-05-02T01:47:37.159Z,71.80
2019-05-02T01:50:07.459Z,71.10
2019-05-02T01:52:37.807Z,71.20
2019-05-02T01:55:08.079Z,70.80
2019-05-02T01:57:39.922Z,70.40
2019-05-02T02:00:11.854Z,70.00
2019-05-02T02:02:42.036Z,70.60
2019-05-02T02:05:12.358Z,70.00
2019-05-02T02:07:42.620Z,70.10
2019-05-02T02:10:15.012Z,70.00
2019-05-02T02:13:02.920Z,70.10
2019-05-02T02:15:16.784Z,69.80
2019-05-02T02:17:51.263Z,69.60
2019-05-02T02:20:23.238Z,69.70
2019-05-02T02:23:14.108Z,69.60
2019-05-02T02:25:45.835Z,69.70
2019-05-02T02:28:34.411Z,70.00
2019-05-02T02:31:07.760Z,70.20
2019-05-02T02:33:40.815Z,70.60
2019-05-02T02:36:08.507Z,71.00
2019-05-02T02:38:38.779Z,71.40
2019-05-02T02:41:17.546Z,71.40
2019-05-02T02:43:54.629Z,71.20
2019-05-02T02:46:22.935Z,70.80
2019-05-02T02:48:53.145Z,70.90
2019-05-02T02:51:25.767Z,70.40
2019-05-02T02:54:02.700Z,70.40
2019-05-02T02:56:27.232Z,69.60
2019-05-02T02:58:57.433Z,69.70
2019-05-02T03:01:29.283Z,69.80
2019-05-02T03:04:01.959Z,69.70
2019-05-02T03:06:31.646Z,69.60
2019-05-02T03:09:01.836Z,69.70
2019-05-02T03:11:41.336Z,69.90
2019-05-02T03:14:19.577Z,69.70
2019-05-02T03:16:49.937Z,69.80
2019-05-02T03:19:21.408Z,69.70
2019-05-02T03:22:01.101Z,69.40
2019-05-02T03:24:28.650Z,70.40
2019-05-02T03:26:59.018Z,69.40
2019-05-02T03:29:39.265Z,70.00
2019-05-02T03:32:15.054Z,70.20
2019-05-02T03:34:47.163Z,70.70
2019-05-02T03:37:10.814Z,70.70
2019-05-02T03:39:37.740Z,70.60
2019-05-02T03:42:08.002Z,70.50
2019-05-02T03:44:38.216Z,71.00
2019-05-02T03:47:08.409Z,71.20
2019-05-02T03:49:41.037Z,71.60
2019-05-02T03:52:10.496Z,71.80
2019-05-02T03:54:49.761Z,71.60
2019-05-02T03:57:14.304Z,72.30
2019-05-02T03:59:44.506Z,72.40
2019-05-02T04:02:20.338Z,72.40
2019-05-02T04:04:46.614Z,72.50
2019-05-02T04:07:16.828Z,72.60
2019-05-02T04:09:47.044Z,72.50
2019-05-02T04:12:21.243Z,72.80
2019-05-02T04:14:55.605Z,72.50
2019-05-02T04:17:21.086Z,72.50
2019-05-02T04:19:51.292Z,72.40
2019-05-02T04:22:21.894Z,72.30
2019-05-02T04:24:56.772Z,72.00
2019-05-02T04:27:27.667Z,71.70
2019-05-02T04:29:57.279Z,71.80
2019-05-02T04:32:30.457Z,70.60
2019-05-02T04:35:00.663Z,70.70
2019-05-02T04:37:34.309Z,70.00
2019-05-02T04:40:08.104Z,70.00
2019-05-02T04:42:39.142Z,69.40
2019-05-02T04:45:21.646Z,70.40
2019-05-02T04:47:42.501Z,69.50
2019-05-02T04:50:18.124Z,69.20
2019-05-02T04:52:48.426Z,68.60
2019-05-02T04:55:26.147Z,68.10
2019-05-02T04:57:50.995Z,68.80
2019-05-02T05:00:29.196Z,68.60
2019-05-02T05:02:59.434Z,70.60
2019-05-02T05:05:31.276Z,69.70
2019-05-02T05:08:01.587Z,71.40
2019-05-02T05:10:39.952Z,69.10
2019-05-02T05:13:03.731Z,71.50
2019-05-02T05:15:41.128Z,70.40
2019-05-02T05:18:11.821Z,68.20
2019-05-02T05:20:40.354Z,68.30
2019-05-02T05:23:10.406Z,66.60
2019-05-02T05:25:42.410Z,63.80
2019-05-02T05:28:12.622Z,61.90
2019-05-02T05:30:45.424Z,59.40
2019-05-02T05:33:14.715Z,59.50
2019-05-02T05:35:50.967Z,58.70
2019-05-02T05:38:18.210Z,55.80
2019-05-02T05:40:50.302Z,53.80
2019-05-02T05:43:20.764Z,52.20
2019-05-02T05:45:56.604Z,50.90
2019-05-02T05:48:22.870Z,50.00
2019-05-02T05:50:53.091Z,49.70
2019-05-02T05:53:24.567Z,48.40
2019-05-02T05:55:58.909Z,47.10
2019-05-02T05:58:28.398Z,46.90
2019-05-02T06:00:59.701Z,46.00
2019-05-02T06:03:33.931Z,46.20
2019-05-02T06:06:01.882Z,45.90
2019-05-02T06:08:32.110Z,46.00
2019-05-02T06:11:02.366Z,45.60
2019-05-02T06:13:32.585Z,45.70
2019-05-02T06:16:03.405Z,44.40
2019-05-02T06:18:36.493Z,45.30
2019-05-02T06:21:08.826Z,44.80
2019-05-02T06:23:41.250Z,44.80
2019-05-02T06:26:13.699Z,44.80
2019-05-02T06:28:43.263Z,45.50
2019-05-02T06:31:17.073Z,45.40
2019-05-02T06:33:46.594Z,44.80
2019-05-02T06:36:16.862Z,44.70
2019-05-02T06:38:47.110Z,44.20
2019-05-02T06:41:20.930Z,43.30
2019-05-02T06:43:49.495Z,43.30
2019-05-02T06:46:21.964Z,43.20
2019-05-02T06:48:52.238Z,42.20
2019-05-02T06:51:22.816Z,40.50
2019-05-02T06:53:53.021Z,38.70
2019-05-02T06:56:23.291Z,38.80
2019-05-02T06:58:53.518Z,37.00
2019-05-02T07:01:23.746Z,36.30
2019-05-02T07:03:53.964Z,35.70
2019-05-02T07:06:24.422Z,35.60
2019-05-02T07:08:54.990Z,35.40
2019-05-02T07:11:25.442Z,34.70
2019-05-02T07:14:31.898Z,33.70
2019-05-02T07:17:05.632Z,32.60
2019-05-02T07:19:38.390Z,32.80
2019-05-02T07:22:09.871Z,32.40
2019-05-02T07:24:40.088Z,33.00
2019-05-02T07:27:10.357Z,31.80
2019-05-02T07:29:40.823Z,32.30
2019-05-02T07:32:11.514Z,30.80
2019-05-02T07:34:44.144Z,30.10
2019-05-02T07:37:14.020Z,30.70
2019-05-02T07:39:44.278Z,31.50
2019-05-02T07:42:14.470Z,32.00
2019-05-02T07:44:44.693Z,30.90
2019-05-02T07:47:15.075Z,30.30
2019-05-02T07:49:45.292Z,30.80
2019-05-02T07:52:15.574Z,30.40
2019-05-02T07:54:45.819Z,30.80
2019-05-02T07:57:16.015Z,30.10
2019-05-02T07:59:46.271Z,30.70
2019-05-02T08:02:20.200Z,30.50
2019-05-02T08:04:48.499Z,31.50
2019-05-02T08:07:21.174Z,31.20
2019-05-02T08:09:50.652Z,31.30
2019-05-02T08:12:20.985Z,32.10
2019-05-02T08:15:13.196Z,32.70
2019-05-02T08:17:41.299Z,32.80
2019-05-02T08:20:13.595Z,34.10
2019-05-02T08:22:44.062Z,35.50
2019-05-02T08:25:15.322Z,35.90
2019-05-02T08:27:47.182Z,36.80
2019-05-02T08:30:40.316Z,38.00
2019-05-02T08:33:07.370Z,39.90
2019-05-02T08:35:37.578Z,39.70
2019-05-02T08:38:12.632Z,40.10
2019-05-02T08:40:42.422Z,40.40
2019-05-02T08:43:11.684Z,39.30
2019-05-02T08:45:42.358Z,41.00
2019-05-02T08:48:12.550Z,40.90
2019-05-02T08:50:42.739Z,41.40
2019-05-02T08:53:14.285Z,39.60
2019-05-02T08:55:45.280Z,40.40
2019-05-02T08:58:17.132Z,38.40
2019-05-02T09:00:47.651Z,39.70
2019-05-02T09:03:18.179Z,38.30
2019-05-02T09:05:48.373Z,39.60
2019-05-02T09:08:18.681Z,38.30
2019-05-02T09:10:48.882Z,38.30
2019-05-02T09:13:26.443Z,38.00
2019-05-02T09:15:53.965Z,38.30
2019-05-02T09:18:29.996Z,36.60
2019-05-02T09:20:56.688Z,36.80
2019-05-02T09:23:31.940Z,37.10
2019-05-02T09:25:59.400Z,37.90
2019-05-02T09:28:29.639Z,39.30
2019-05-02T09:31:05.006Z,39.50
2019-05-02T09:33:32.267Z,38.60
2019-05-02T09:36:08.375Z,38.80
2019-05-02T09:38:38.630Z,38.90
2019-05-02T09:41:16.982Z,38.90
2019-05-02T09:43:42.534Z,37.20
2019-05-02T09:46:16.501Z,36.40
2019-05-02T09:48:44.775Z,36.00
2019-05-02T09:51:17.501Z,35.90
2019-05-02T09:53:47.119Z,36.00
2019-05-02T09:56:17.312Z,34.70
2019-05-02T09:58:49.306Z,33.60
2019-05-02T10:01:22.375Z,33.20
2019-05-02T10:03:52.694Z,33.40
2019-05-02T10:06:23.019Z,34.60
2019-05-02T10:08:54.742Z,36.70
2019-05-02T10:11:26.271Z,36.70
2019-05-02T10:13:56.630Z,35.60
2019-05-02T10:16:27.403Z,35.70
2019-05-02T10:19:00.351Z,36.80
2019-05-02T10:21:31.668Z,36.60
2019-05-02T10:24:03.700Z,37.50
2019-05-02T10:26:49.379Z,38.60
2019-05-02T10:29:21.004Z,40.90
2019-05-02T10:31:52.647Z,42.70
2019-05-02T10:34:23.084Z,44.10
2019-05-02T10:36:58.566Z,45.80
2019-05-02T10:39:28.520Z,47.60
2019-05-02T10:41:57.664Z,49.30
2019-05-02T10:44:34.863Z,50.00
2019-05-02T10:47:03.404Z,51.10
2019-05-02T10:49:35.257Z,50.90
2019-05-02T10:52:05.468Z,50.30
2019-05-02T10:54:37.553Z,50.80
2019-05-02T10:57:07.585Z,51.70
2019-05-02T10:59:37.819Z,52.40
2019-05-02T11:02:16.532Z,53.00
2019-05-02T11:04:52.492Z,53.70
2019-05-02T11:07:26.355Z,54.00
2019-05-02T11:09:57.336Z,54.20
2019-05-02T11:12:40.287Z,54.90
2019-05-02T11:15:08.234Z,54.90
2019-05-02T11:17:42.222Z,55.40
2019-05-02T11:20:12.575Z,55.50
2019-05-02T11:22:42.877Z,56.50
2019-05-02T11:25:13.073Z,57.60
2019-05-02T11:27:43.282Z,58.40
2019-05-02T11:30:16.770Z,59.50
2019-05-02T11:32:45.452Z,59.50
2019-05-02T11:35:15.668Z,60.10
2019-05-02T11:37:46.161Z,60.00
2019-05-02T11:40:16.430Z,61.40
2019-05-02T11:42:47.721Z,60.60
2019-05-02T11:45:17.927Z,60.00
2019-05-02T11:48:11.913Z,60.00
2019-05-02T11:50:42.248Z,59.80
2019-05-02T11:53:23.276Z,60.90
2019-05-02T11:55:44.600Z,62.40
2019-05-02T11:58:14.895Z,62.90
2019-05-02T12:00:49.429Z,63.20
2019-05-02T12:03:18.744Z,62.60
2019-05-02T12:05:48.960Z,63.70
2019-05-02T12:08:19.174Z,63.70
2019-05-02T12:10:49.377Z,64.60
2019-05-02T12:13:19.608Z,65.20
2019-05-02T12:15:51.764Z,65.30
2019-05-02T12:18:23.277Z,65.40
2019-05-02T12:20:53.713Z,65.00
2019-05-02T12:23:24.016Z,64.60
2019-05-02T12:25:54.315Z,64.00
2019-05-02T12:28:24.586Z,63.70
2019-05-02T12:30:54.858Z,64.60
2019-05-02T12:33:26.948Z,65.60
2019-05-02T12:35:57.132Z,66.70
2019-05-02T12:38:27.353Z,66.70
2019-05-02T12:40:58.002Z,66.90
2019-05-02T12:43:28.354Z,68.50
2019-05-02T12:45:58.545Z,69.10
2019-05-02T12:48:28.838Z,69.70
2019-05-02T12:50:59.026Z,70.80
2019-05-02T12:53:29.247Z,70.90
2019-05-02T12:55:59.439Z,69.60
2019-05-02T12:58:29.677Z,70.10
2019-05-02T13:00:59.873Z,71.20
2019-05-02T13:03:35.794Z,68.20
2019-05-02T13:06:06.070Z,67.40
2019-05-02T13:08:38.038Z,67.80
2019-05-02T13:11:24.989Z,66.00
2019-05-02T13:13:55.270Z,66.40
2019-05-02T13:16:25.464Z,64.00
2019-05-02T13:18:57.205Z,64.20
2019-05-02T13:21:41.486Z,64.60
2019-05-02T13:24:07.477Z,62.40
2019-05-02T13:26:36.274Z,63.30
2019-05-02T13:29:06.538Z,63.40
2019-05-02T13:31:38.500Z,64.80
2019-05-02T13:34:22.093Z,66.50
2019-05-02T13:36:53.977Z,66.20
2019-05-02T13:39:39.616Z,65.90
2019-05-02T13:42:09.900Z,66.90
2019-05-02T13:44:44.282Z,66.60
2019-05-02T13:47:16.122Z,66.60
2019-05-02T13:49:54.097Z,66.00
2019-05-02T13:52:18.399Z,64.10
2019-05-02T13:54:49.235Z,64.80
2019-05-02T13:57:21.643Z,64.50
2019-05-02T13:59:52.732Z,64.90
2019-05-02T14:02:33.951Z,62.30
2019-05-02T14:05:07.579Z,61.90
2019-05-02T14:07:38.455Z,62.70
2019-05-02T14:10:11.942Z,62.40
2019-05-02T14:12:44.054Z,60.70
2019-05-02T14:15:14.871Z,60.10
2019-05-02T14:17:45.139Z,59.60
2019-05-02T14:20:22.278Z,60.00
2019-05-02T14:22:52.826Z,59.20
2019-05-02T14:25:23.492Z,58.80
2019-05-02T14:27:55.735Z,59.60
2019-05-02T14:30:37.228Z,61.50
2019-05-02T14:33:02.396Z,60.80
2019-05-02T14:35:39.190Z,61.30
2019-05-02T14:38:13.666Z,61.90
2019-05-02T14:40:52.896Z,61.40
2019-05-02T14:43:46.151Z,60.70
2019-05-02T14:46:13.769Z,61.00
2019-05-02T14:48:45.330Z,60.10
2019-05-02T14:51:16.880Z,60.70
2019-05-02T14:53:47.862Z,61.00
2019-05-02T14:56:22.911Z,59.60
2019-05-02T14:58:53.169Z,59.20
2019-05-02T15:01:26.157Z,59.40
2019-05-02T15:03:58.300Z,59.90
2019-05-02T15:06:27.241Z,60.20
2019-05-02T15:08:57.498Z,60.20
2019-05-02T15:11:32.201Z,61.20
2019-05-02T15:14:00.568Z,61.60
2019-05-02T15:16:40.369Z,61.40
2019-05-02T15:19:33.446Z,61.40
2019-05-02T15:22:03.936Z,60.20
2019-05-02T15:24:37.501Z,59.90
2019-05-02T15:27:11.661Z,58.60
2019-05-02T15:29:37.827Z,59.10
2019-05-02T15:32:15.603Z,58.80
2019-05-02T15:35:04.644Z,59.20
2019-05-02T15:37:35.968Z,58.50
2019-05-02T15:42:38.457Z,57.70
2019-05-02T15:45:08.895Z,57.70
2019-05-02T15:47:41.655Z,57.30
2019-05-02T15:50:14.765Z,57.60
2019-05-02T15:52:44.732Z,57.50
2019-05-02T15:55:14.929Z,58.00
2019-05-02T15:57:46.373Z,57.90
2019-05-02T16:00:25.707Z,58.30
2019-05-02T16:02:56.312Z,57.10
2019-05-02T16:05:26.914Z,58.30
2019-05-02T16:08:05.267Z,58.80
2019-05-02T16:10:31.587Z,56.80
2019-05-02T16:13:01.346Z,56.80
2019-05-02T16:15:32.645Z,56.80
2019-05-02T16:18:05.150Z,57.50
2019-05-02T16:20:49.169Z,56.60
2019-05-02T16:23:27.381Z,55.50
2019-05-02T16:25:52.407Z,54.90
2019-05-02T16:28:22.890Z,55.20
2019-05-02T16:30:54.786Z,55.50
2019-05-02T16:33:25.181Z,55.80
2019-05-02T16:35:55.454Z,56.20
2019-05-02T16:38:26.791Z,55.70
2019-05-02T16:41:01.700Z,55.70
2019-05-02T16:43:32.766Z,55.20
2019-05-02T16:46:06.829Z,53.30
2019-05-02T16:48:39.052Z,52.40
2019-05-02T16:51:27.597Z,52.00
2019-05-02T16:53:42.709Z,51.30
2019-05-02T16:56:12.938Z,50.80
2019-05-02T16:58:47.086Z,49.90
2019-05-02T17:01:23.595Z,49.30
2019-05-02T17:03:47.883Z,48.50
2019-05-02T17:06:22.468Z,48.70
2019-05-02T17:08:58.669Z,48.30
2019-05-02T17:11:32.351Z,48.30
2019-05-02T17:14:06.879Z,48.10
2019-05-02T17:16:34.493Z,49.10
2019-05-02T17:19:04.698Z,48.70
2019-05-02T17:21:52.247Z,47.90
2019-05-02T17:24:06.774Z,48.40
2019-05-02T17:26:36.946Z,47.90
2019-05-02T17:29:07.160Z,48.60
2019-05-02T17:31:37.342Z,49.10
2019-05-02T17:34:07.879Z,49.90
2019-05-02T17:36:38.091Z,50.10
2019-05-02T17:39:08.468Z,50.00
2019-05-02T17:41:42.393Z,50.80
2019-05-02T17:44:12.855Z,51.50
2019-05-02T17:46:44.144Z,52.80
2019-05-02T17:49:14.590Z,52.30
2019-05-02T17:52:05.773Z,53.00
2019-05-02T17:54:34.337Z,53.20
2019-05-02T17:57:04.531Z,53.70
2019-05-02T17:59:37.619Z,54.00
2019-05-02T18:02:11.623Z,54.50
2019-05-02T18:04:38.550Z,54.50
2019-05-02T18:07:08.842Z,54.50
2019-05-02T18:09:39.014Z,54.80
2019-05-02T18:12:12.681Z,54.90
2019-05-02T18:14:42.158Z,54.90
2019-05-02T18:17:12.807Z,55.10
2019-05-02T18:19:43.090Z,54.90
2019-05-02T18:22:23.567Z,54.60
2019-05-02T18:24:46.456Z,55.20
2019-05-02T18:27:16.732Z,55.00
2019-05-02T18:29:47.194Z,54.60
2019-05-02T18:32:22.132Z,55.10
2019-05-02T18:34:51.764Z,55.30
2019-05-02T18:37:21.892Z,55.50
2019-05-02T18:39:55.860Z,55.60
2019-05-02T18:42:25.634Z,55.70
2019-05-02T18:44:56.079Z,55.90
2019-05-02T18:47:26.306Z,55.50
2019-05-02T18:50:01.810Z,56.00
2019-05-02T18:52:38.043Z,56.20
2019-05-02T18:55:02.154Z,56.80
2019-05-02T18:57:32.623Z,57.40
2019-05-02T19:00:03.368Z,57.60
2019-05-02T19:02:35.613Z,57.70
2019-05-02T19:05:13.543Z,58.00
2019-05-02T19:07:38.353Z,58.60
2019-05-02T19:10:08.539Z,58.70
2019-05-02T19:12:38.791Z,58.60
2019-05-02T19:15:09.211Z,58.90
2019-05-02T19:17:40.513Z,58.60
2019-05-02T19:20:22.066Z,58.40
2019-05-02T19:22:56.308Z,58.40
2019-05-02T19:25:23.894Z,58.50
2019-05-02T19:27:57.578Z,58.80
2019-05-02T19:30:33.055Z,59.10
2019-05-02T19:33:07.677Z,58.90
2019-05-02T19:35:37.681Z,59.10
2019-05-02T19:38:07.246Z,59.20
2019-05-02T19:40:37.717Z,59.50
2019-05-02T19:43:07.954Z,59.50
2019-05-02T19:45:38.202Z,59.50
2019-05-02T19:48:08.415Z,59.50
2019-05-02T19:50:43.362Z,59.20
2019-05-02T19:53:18.009Z,59.10
2019-05-02T19:55:43.053Z,59.60
2019-05-02T19:58:17.237Z,60.00
2019-05-02T20:00:47.514Z,59.90
2019-05-02T20:03:21.647Z,60.50
2019-05-02T20:05:51.869Z,60.40
2019-05-02T20:08:24.519Z,60.40
2019-05-02T20:10:58.340Z,60.70
2019-05-02T20:13:29.648Z,60.50
2019-05-02T20:16:09.574Z,60.30
2019-05-02T20:18:43.819Z,62.20
2019-05-02T20:21:23.230Z,64.00
2019-05-02T20:23:45.146Z,66.50
2019-05-02T20:26:17.151Z,67.80
2019-05-02T20:28:47.072Z,66.70
2019-05-02T20:31:17.090Z,67.30
2019-05-02T20:33:47.266Z,67.30
2019-05-02T20:36:17.541Z,66.50
2019-05-02T20:38:47.802Z,66.60
2019-05-02T20:41:18.049Z,66.60
2019-05-02T20:43:48.362Z,66.80
2019-05-02T20:46:18.596Z,66.20
2019-05-02T20:48:52.593Z,65.90
2019-05-02T20:51:24.109Z,65.50
2019-05-02T20:53:54.464Z,65.60
2019-05-02T20:56:24.687Z,65.60
2019-05-02T20:58:54.989Z,65.40
2019-05-02T21:01:25.285Z,65.40
2019-05-02T21:03:57.729Z,65.00
2019-05-02T21:06:40.890Z,64.50
2019-05-02T21:09:07.786Z,64.60
2019-05-02T21:12:02.320Z,64.50
2019-05-02T21:14:32.718Z,64.80
2019-05-02T21:17:03.461Z,64.40
2019-05-02T21:19:33.759Z,64.30
2019-05-02T21:22:06.389Z,64.70
2019-05-02T21:24:36.687Z,64.60
2019-05-02T21:27:07.001Z,64.30
2019-05-02T21:29:37.316Z,64.30
2019-05-02T21:32:07.641Z,64.60
2019-05-02T21:34:37.930Z,64.40
2019-05-02T21:37:08.237Z,65.80
2019-05-02T21:39:38.683Z,66.50
2019-05-02T21:42:08.929Z,66.90
2019-05-02T21:44:39.211Z,67.50
2019-05-02T21:47:09.792Z,68.30
2019-05-02T21:49:43.606Z,68.70
2019-05-02T21:52:31.865Z,68.80
2019-05-02T21:55:07.732Z,68.10
2019-05-02T21:57:38.036Z,68.20
2019-05-02T22:00:11.696Z,68.50
2019-05-02T22:02:43.580Z,68.20
2019-05-02T22:05:13.874Z,68.30
2019-05-02T22:07:44.095Z,68.10
2019-05-02T22:10:14.298Z,67.80
2019-05-02T22:12:44.669Z,67.70
2019-05-02T22:15:14.951Z,67.90
2019-05-02T22:17:45.369Z,67.70
2019-05-02T22:20:15.657Z,67.50
2019-05-02T22:22:45.978Z,67.20
2019-05-02T22:25:16.199Z,67.50
2019-05-02T22:27:46.433Z,67.60
2019-05-02T22:30:16.756Z,67.50
2019-05-02T22:32:47.089Z,67.30
2019-05-02T22:35:17.373Z,67.10
2019-05-02T22:37:49.247Z,66.90
2019-05-02T22:40:19.474Z,66.80
2019-05-02T22:42:49.783Z,67.10
2019-05-02T22:45:21.798Z,67.70
2019-05-02T22:47:52.291Z,67.20
2019-05-02T22:50:22.508Z,67.60
2019-05-02T22:52:52.747Z,67.40
2019-05-02T22:55:23.247Z,67.40
2019-05-02T22:57:53.486Z,67.80
2019-05-02T23:00:23.824Z,67.40
2019-05-02T23:02:54.160Z,67.50
2019-05-02T23:05:24.400Z,67.40
2019-05-02T23:07:54.671Z,67.30
2019-05-02T23:10:24.949Z,67.00
2019-05-02T23:12:55.184Z,67.00
2019-05-02T23:15:25.393Z,66.80
2019-05-02T23:17:55.702Z,67.90
2019-05-02T23:20:26.004Z,67.20
2019-05-02T23:23:14.992Z,67.20
2019-05-02T23:25:52.764Z,67.10
2019-05-02T23:28:24.641Z,67.20
2019-05-02T23:30:54.920Z,67.50
2019-05-02T23:33:26.788Z,67.70
2019-05-02T23:35:57.007Z,67.80
2019-05-02T23:38:27.376Z,68.00
2019-05-02T23:40:58.727Z,67.80
2019-05-02T23:43:28.965Z,67.80
2019-05-02T23:45:59.251Z,67.80
2019-05-02T23:48:29.564Z,67.80
2019-05-02T23:51:02.568Z,67.60
2019-05-02T23:53:33.009Z,67.70
2019-05-02T23:56:03.221Z,67.60
2019-05-02T23:58:36.095Z,67.80
